Acton, Texas
Current Conditions -  °F | °C
As of 3:35 AM on Saturday 25 Oct 2014 (Local Time) from KGDJ Reporting Station
Clear Clear  
Wind Chill: 69°   Ceiling: Unl
Heat Index: 69°   Visibility: 10mi
Dew Point: 59°   Wind: 3mph
Humidity: 71%   Direction: 120°ESE
Pressure: 30.11"   Gusts: NA
Location:  32.4693°N, 97.7085°W
Report Text: KGDJ 250835Z AUTO 12003KT 10SM CLR 21/15 A3011 RMK AO2 T02060152
Loading
Personal Weather Stations






























Interactive Weather Map New forecast layout! Learn more

10-Day Weather Forecast

Advertisements
Track Severe Weather on mobile